createdAt,value
2023-02-27T00:02:00.802Z,1.42
2023-02-27T00:04:27.930Z,1.45
2023-02-27T00:06:54.941Z,1.45
2023-02-27T00:09:21.718Z,1.46
2023-02-27T00:11:48.497Z,1.46
2023-02-27T00:14:15.366Z,1.47
2023-02-27T00:16:42.108Z,1.48
2023-02-27T00:19:08.929Z,1.49
2023-02-27T00:21:36.863Z,1.50
2023-02-27T00:24:04.224Z,1.50
2023-02-27T00:26:31.135Z,1.50
2023-02-27T00:28:57.941Z,1.48
2023-02-27T00:31:25.053Z,1.46
2023-02-27T00:33:52.280Z,1.47
2023-02-27T00:36:19.155Z,1.48
2023-02-27T00:38:45.989Z,1.48
2023-02-27T00:41:12.815Z,1.48
2023-02-27T00:43:39.748Z,1.48
2023-02-27T00:46:06.954Z,1.46
2023-02-27T00:48:33.722Z,1.45
2023-02-27T00:51:01.743Z,1.46
2023-02-27T00:53:28.549Z,1.45
2023-02-27T00:55:55.667Z,1.46
2023-02-27T00:58:22.483Z,1.46
2023-02-27T01:00:49.375Z,1.45
2023-02-27T01:03:16.219Z,1.46
2023-02-27T01:05:43.069Z,1.46
2023-02-27T01:08:09.924Z,1.47
2023-02-27T01:10:36.762Z,1.47
2023-02-27T01:13:06.691Z,1.47
2023-02-27T01:15:33.850Z,1.46
2023-02-27T01:18:00.952Z,1.47
2023-02-27T01:20:28.544Z,1.46
2023-02-27T01:22:55.517Z,1.44
2023-02-27T01:25:22.385Z,1.42
2023-02-27T01:27:49.700Z,1.41
2023-02-27T01:30:16.826Z,1.41
2023-02-27T01:32:44.719Z,1.40
2023-02-27T01:35:12.674Z,1.40
2023-02-27T01:37:39.737Z,1.40
2023-02-27T01:40:07.864Z,1.43
2023-02-27T01:42:35.489Z,1.43
2023-02-27T01:45:11.872Z,1.42
2023-02-27T01:47:45.199Z,1.42
2023-02-27T01:50:13.801Z,1.43
2023-02-27T01:52:43.140Z,1.43
2023-02-27T01:55:12.897Z,1.42
2023-02-27T01:57:42.559Z,1.40
2023-02-27T02:00:10.497Z,1.37
2023-02-27T02:02:46.136Z,1.36
2023-02-27T02:05:14.628Z,1.36
2023-02-27T02:07:44.202Z,1.35
2023-02-27T02:10:14.067Z,1.34
2023-02-27T02:12:42.264Z,1.35
2023-02-27T02:15:09.458Z,1.34
2023-02-27T02:17:39.739Z,1.33
2023-02-27T02:20:18.744Z,1.32
2023-02-27T02:23:23.415Z,1.31
2023-02-27T02:25:59.315Z,1.31
2023-02-27T02:28:35.188Z,1.28
2023-02-27T02:31:23.948Z,1.28
2023-02-27T02:34:09.837Z,1.26
2023-02-27T02:37:04.104Z,1.23
2023-02-27T02:39:30.927Z,1.24
2023-02-27T02:42:13.643Z,1.24
2023-02-27T02:44:49.222Z,1.23
2023-02-27T02:47:24.934Z,1.24
2023-02-27T02:50:08.520Z,1.24
2023-02-27T02:53:12.654Z,1.23
2023-02-27T02:55:49.142Z,1.24
2023-02-27T02:58:18.791Z,1.24
2023-02-27T03:00:52.259Z,1.25
2023-02-27T03:03:26.230Z,1.25
2023-02-27T03:06:01.897Z,1.25
2023-02-27T03:08:33.613Z,1.24
2023-02-27T03:11:05.496Z,1.22
2023-02-27T03:13:41.994Z,1.22
2023-02-27T03:16:17.195Z,1.21
2023-02-27T03:18:58.257Z,1.19
2023-02-27T03:21:47.425Z,1.18
2023-02-27T03:24:23.903Z,1.17
2023-02-27T03:26:53.081Z,1.15
2023-02-27T03:29:29.928Z,1.14
2023-02-27T03:32:01.652Z,1.16
2023-02-27T03:34:34.918Z,1.14
2023-02-27T03:37:13.903Z,1.16
2023-02-27T03:39:47.393Z,1.14
2023-02-27T03:42:41.982Z,1.12
2023-02-27T03:45:37.786Z,1.11
2023-02-27T03:48:06.458Z,1.11
2023-02-27T03:50:35.921Z,1.12
2023-02-27T03:53:13.244Z,1.11
2023-02-27T03:55:43.452Z,1.11
2023-02-27T03:58:11.001Z,1.10
2023-02-27T04:00:38.287Z,1.09
2023-02-27T04:03:05.551Z,1.09
2023-02-27T04:05:33.334Z,1.07
2023-02-27T04:08:36.594Z,1.05
2023-02-27T04:11:24.817Z,1.04
2023-02-27T04:14:09.093Z,1.03
2023-02-27T04:16:38.886Z,1.04
2023-02-27T04:19:29.421Z,1.05
2023-02-27T04:22:21.217Z,1.04
2023-02-27T04:25:03.922Z,1.04
2023-02-27T04:27:33.718Z,1.04
2023-02-27T04:30:22.344Z,1.05
2023-02-27T04:33:07.341Z,1.03
2023-02-27T04:35:43.500Z,1.04
2023-02-27T04:38:29.541Z,1.05
2023-02-27T04:41:03.677Z,1.05
2023-02-27T04:43:31.575Z,1.07
2023-02-27T04:46:01.005Z,1.07
2023-02-27T04:48:41.074Z,1.06
2023-02-27T04:51:16.667Z,1.07
2023-02-27T04:54:22.997Z,1.07
2023-02-27T04:56:55.362Z,1.06
2023-02-27T04:59:29.504Z,1.07
2023-02-27T05:02:13.038Z,1.07
2023-02-27T05:04:43.033Z,1.07
2023-02-27T05:07:16.985Z,1.08
2023-02-27T05:09:57.657Z,1.09
2023-02-27T05:12:52.517Z,1.10
2023-02-27T05:15:26.791Z,1.11
2023-02-27T05:18:07.592Z,1.12
2023-02-27T05:20:50.594Z,1.13
2023-02-27T05:23:44.470Z,1.14
2023-02-27T05:26:34.966Z,1.15
2023-02-27T05:29:08.828Z,1.16
2023-02-27T05:31:46.472Z,1.15
2023-02-27T05:34:22.655Z,1.18
2023-02-27T05:37:15.787Z,1.18
2023-02-27T05:39:45.721Z,1.19
2023-02-27T05:42:37.821Z,1.20
2023-02-27T05:45:10.055Z,1.22
2023-02-27T05:47:43.761Z,1.22
2023-02-27T05:50:19.341Z,1.23
2023-02-27T05:52:48.546Z,1.24
2023-02-27T05:55:21.563Z,1.25
2023-02-27T05:57:56.066Z,1.28
2023-02-27T06:00:23.050Z,1.32
2023-02-27T06:02:49.969Z,1.33
2023-02-27T06:05:18.837Z,1.35
2023-02-27T06:07:46.379Z,1.35
2023-02-27T06:10:18.941Z,1.36
2023-02-27T06:12:45.906Z,1.35
2023-02-27T06:15:12.770Z,1.33
2023-02-27T06:17:40.298Z,1.35
2023-02-27T06:20:08.210Z,1.36
2023-02-27T06:22:35.240Z,1.40
2023-02-27T06:25:02.493Z,1.41
2023-02-27T06:27:29.358Z,1.41
2023-02-27T06:29:57.101Z,1.42
2023-02-27T06:32:25.225Z,1.43
2023-02-27T06:34:52.729Z,1.44
2023-02-27T06:37:21.195Z,1.45
2023-02-27T06:39:48.442Z,1.48
2023-02-27T06:42:16.053Z,1.48
2023-02-27T06:44:42.919Z,1.50
2023-02-27T06:47:09.910Z,1.51
2023-02-27T06:49:36.759Z,1.52
2023-02-27T06:52:03.524Z,1.50
2023-02-27T06:54:30.358Z,1.51
2023-02-27T06:56:57.231Z,1.54
2023-02-27T06:59:24.033Z,1.56
2023-02-27T07:01:51.144Z,1.58
2023-02-27T07:04:18.192Z,1.60
2023-02-27T07:07:33.939Z,1.60
2023-02-27T07:09:32.166Z,1.62
2023-02-27T07:11:59.355Z,1.62
2023-02-27T07:14:26.164Z,1.64
2023-02-27T07:16:56.133Z,1.65
2023-02-27T07:19:24.130Z,1.67
2023-02-27T07:21:51.029Z,1.69
2023-02-27T07:24:17.894Z,1.68
2023-02-27T07:26:44.704Z,1.67
2023-02-27T07:29:11.876Z,1.67
2023-02-27T07:31:38.754Z,1.69
2023-02-27T07:34:06.310Z,1.70
2023-02-27T07:36:33.855Z,1.73
2023-02-27T07:39:03.142Z,1.75
2023-02-27T07:41:31.214Z,1.76
2023-02-27T07:44:00.900Z,1.78
2023-02-27T07:46:28.372Z,1.80
2023-02-27T07:48:55.423Z,1.81
2023-02-27T07:51:22.423Z,1.84
2023-02-27T07:53:49.260Z,1.86
2023-02-27T07:56:15.965Z,1.89
2023-02-27T07:58:42.805Z,1.92
2023-02-27T08:01:09.694Z,1.94
2023-02-27T08:03:36.709Z,1.95
2023-02-27T08:06:03.608Z,1.95
2023-02-27T08:08:30.525Z,1.95
2023-02-27T08:10:58.213Z,1.96
2023-02-27T08:13:55.698Z,1.96
2023-02-27T08:16:12.214Z,1.97
2023-02-27T08:18:39.010Z,1.98
2023-02-27T08:21:05.975Z,2.00
2023-02-27T08:23:34.061Z,1.99
2023-02-27T08:26:02.481Z,2.00
2023-02-27T08:28:29.529Z,2.01
2023-02-27T08:30:56.470Z,2.02
2023-02-27T08:33:24.278Z,2.03
2023-02-27T08:35:51.488Z,2.03
2023-02-27T08:38:18.481Z,2.05
2023-02-27T08:40:45.499Z,2.07
2023-02-27T08:43:12.386Z,2.08
2023-02-27T08:45:39.266Z,2.10
2023-02-27T08:48:06.453Z,2.10
2023-02-27T08:50:33.522Z,2.13
2023-02-27T08:53:00.367Z,2.14
2023-02-27T08:55:28.672Z,2.15
2023-02-27T08:57:55.737Z,2.17
2023-02-27T09:00:23.219Z,2.18
2023-02-27T09:02:50.649Z,2.19
2023-02-27T09:05:17.545Z,2.21
2023-02-27T09:07:45.209Z,2.20
2023-02-27T09:10:12.546Z,2.20
2023-02-27T09:12:39.540Z,2.21
2023-02-27T09:15:07.644Z,2.24
2023-02-27T09:17:34.454Z,2.28
2023-02-27T09:20:01.275Z,2.30
2023-02-27T09:22:28.374Z,2.29
2023-02-27T09:24:55.728Z,2.33
2023-02-27T09:27:23.520Z,2.34
2023-02-27T09:29:55.446Z,2.37
2023-02-27T09:32:23.249Z,2.38
2023-02-27T09:34:50.632Z,2.36
2023-02-27T09:37:18.840Z,2.33
2023-02-27T09:39:46.377Z,2.30
2023-02-27T09:42:19.039Z,2.26
2023-02-27T09:44:49.124Z,2.22
2023-02-27T09:47:42.105Z,2.20
2023-02-27T09:50:37.412Z,2.20
2023-02-27T09:53:06.990Z,2.22
2023-02-27T09:55:38.619Z,2.20
2023-02-27T09:58:30.225Z,2.19
2023-02-27T10:01:04.193Z,2.19
2023-02-27T10:03:43.291Z,2.18
2023-02-27T10:06:31.046Z,2.18
2023-02-27T10:09:16.595Z,2.15
2023-02-27T10:11:52.567Z,2.13
2023-02-27T10:14:29.538Z,2.12
2023-02-27T10:16:58.565Z,2.12
2023-02-27T10:19:32.953Z,2.14
2023-02-27T10:22:05.996Z,2.16
2023-02-27T10:24:38.669Z,2.15
2023-02-27T10:27:13.433Z,2.14
2023-02-27T10:29:41.185Z,2.15
2023-02-27T10:32:23.523Z,2.17
2023-02-27T10:34:58.074Z,2.23
2023-02-27T10:37:26.715Z,2.25
2023-02-27T10:39:57.445Z,2.26
2023-02-27T10:42:27.586Z,2.31
2023-02-27T10:44:55.601Z,2.35
2023-02-27T10:47:24.223Z,2.38
2023-02-27T10:49:52.706Z,2.40
2023-02-27T10:52:19.806Z,2.39
2023-02-27T10:54:47.569Z,2.36
2023-02-27T10:57:26.986Z,2.37
2023-02-27T10:59:58.056Z,2.39
2023-02-27T11:02:36.615Z,2.40
2023-02-27T11:05:06.381Z,2.48
2023-02-27T11:07:38.937Z,2.44
2023-02-27T11:10:14.980Z,2.43
2023-02-27T11:13:16.782Z,2.40
2023-02-27T11:15:43.794Z,2.38
2023-02-27T11:18:42.913Z,2.32
2023-02-27T11:21:19.694Z,2.28
2023-02-27T11:23:58.353Z,2.25
2023-02-27T11:26:34.407Z,2.20
2023-02-27T11:29:14.454Z,2.14
2023-02-27T11:31:52.721Z,2.11
2023-02-27T11:34:38.063Z,2.11
2023-02-27T11:37:18.538Z,2.08
2023-02-27T11:39:52.286Z,2.08
2023-02-27T11:42:32.540Z,2.03
2023-02-27T11:46:05.153Z,2.03
2023-02-27T11:48:20.880Z,2.05
2023-02-27T11:51:16.659Z,2.07
2023-02-27T11:54:04.975Z,2.09
2023-02-27T11:56:41.273Z,2.12
2023-02-27T11:59:11.866Z,2.14
2023-02-27T12:01:48.326Z,2.15
2023-02-27T12:04:26.316Z,2.17
2023-02-27T12:07:03.346Z,2.18
2023-02-27T12:09:50.950Z,2.21
2023-02-27T12:12:52.399Z,2.19
2023-02-27T12:15:36.685Z,2.20
2023-02-27T12:18:19.505Z,2.23
2023-02-27T12:21:10.368Z,2.28
2023-02-27T12:23:47.455Z,2.29
2023-02-27T12:26:38.641Z,2.30
2023-02-27T12:29:30.441Z,2.29
2023-02-27T12:32:38.402Z,2.26
2023-02-27T12:35:32.558Z,2.25
2023-02-27T12:38:00.450Z,2.25
2023-02-27T12:40:39.568Z,2.24
2023-02-27T12:43:35.562Z,2.26
2023-02-27T12:46:44.757Z,2.25
2023-02-27T12:49:53.883Z,2.24
2023-02-27T12:52:20.772Z,2.21
2023-02-27T12:54:58.683Z,2.19
2023-02-27T12:57:39.555Z,2.18
2023-02-27T13:00:20.400Z,2.14
2023-02-27T13:02:56.525Z,2.14
2023-02-27T13:05:34.885Z,2.13
2023-02-27T13:08:17.215Z,2.12
2023-02-27T13:10:53.312Z,2.11
2023-02-27T13:13:41.803Z,2.09
2023-02-27T13:16:18.995Z,2.07
2023-02-27T13:19:05.945Z,2.07
2023-02-27T13:22:02.746Z,2.05
2023-02-27T13:24:31.515Z,2.07
2023-02-27T13:27:14.067Z,2.06
2023-02-27T13:29:47.168Z,2.08
2023-02-27T13:32:41.382Z,2.12
2023-02-27T13:35:16.486Z,2.14
2023-02-27T13:38:01.193Z,2.16
2023-02-27T13:40:39.071Z,2.18
2023-02-27T13:43:06.113Z,2.19
2023-02-27T13:46:22.696Z,2.17
2023-02-27T13:48:54.030Z,2.15
2023-02-27T13:51:37.057Z,2.14
2023-02-27T13:54:12.720Z,2.15
2023-02-27T13:56:54.613Z,2.12
2023-02-27T13:59:31.286Z,2.12
2023-02-27T14:01:58.131Z,2.10
2023-02-27T14:04:28.837Z,2.11
2023-02-27T14:07:18.267Z,2.10
2023-02-27T14:09:47.295Z,2.08
2023-02-27T14:12:44.382Z,2.07
2023-02-27T14:15:24.579Z,2.08
2023-02-27T14:18:11.453Z,2.05
2023-02-27T14:20:42.607Z,2.04
2023-02-27T14:23:16.729Z,2.05
2023-02-27T14:25:46.550Z,2.04
2023-02-27T14:28:30.048Z,2.05
2023-02-27T14:31:18.942Z,2.04
2023-02-27T14:33:49.944Z,2.06
2023-02-27T14:36:19.057Z,2.07
2023-02-27T14:38:46.909Z,2.10
2023-02-27T14:41:44.503Z,2.10
2023-02-27T14:44:22.612Z,2.09
2023-02-27T14:46:52.257Z,2.07
2023-02-27T14:49:27.717Z,2.09
2023-02-27T14:51:55.453Z,2.08
2023-02-27T14:54:24.811Z,2.05
2023-02-27T14:57:00.264Z,2.03
2023-02-27T14:59:29.986Z,2.02
2023-02-27T15:01:58.705Z,2.02
2023-02-27T15:04:27.558Z,2.00
2023-02-27T15:06:56.221Z,1.96
2023-02-27T15:09:26.876Z,1.94
2023-02-27T15:12:03.637Z,1.90
2023-02-27T15:14:39.721Z,1.89
2023-02-27T15:17:28.288Z,1.87
2023-02-27T15:19:57.607Z,1.84
2023-02-27T15:22:38.636Z,1.83
2023-02-27T15:25:25.448Z,1.84
2023-02-27T15:27:52.452Z,1.80
2023-02-27T15:30:21.296Z,1.80
2023-02-27T15:32:49.053Z,1.79
2023-02-27T15:35:23.328Z,1.78
2023-02-27T15:37:55.827Z,1.76
2023-02-27T15:40:27.118Z,1.75
2023-02-27T15:42:55.511Z,1.72
2023-02-27T15:46:05.623Z,1.70
2023-02-27T15:48:33.242Z,1.68
2023-02-27T15:51:03.288Z,1.67
2023-02-27T15:53:33.380Z,1.66
2023-02-27T15:56:08.990Z,1.62
2023-02-27T15:58:41.771Z,1.59
2023-02-27T16:01:17.064Z,1.57
2023-02-27T16:03:47.644Z,1.52
2023-02-27T16:06:27.315Z,1.51
2023-02-27T16:09:03.341Z,1.51
2023-02-27T16:11:33.272Z,1.48
2023-02-27T16:14:01.301Z,1.47
2023-02-27T16:16:35.639Z,1.45
2023-02-27T16:19:26.347Z,1.42
2023-02-27T16:22:11.539Z,1.40
2023-02-27T16:24:38.527Z,1.40
2023-02-27T16:27:05.748Z,1.39
2023-02-27T16:29:42.533Z,1.38
2023-02-27T16:32:23.194Z,1.35
2023-02-27T16:34:51.488Z,1.38
2023-02-27T16:37:22.785Z,1.39
2023-02-27T16:39:51.746Z,1.36
2023-02-27T16:42:19.120Z,1.31
2023-02-27T16:44:46.551Z,1.28
2023-02-27T16:47:14.100Z,1.24
2023-02-27T16:49:41.124Z,1.20
2023-02-27T16:52:11.401Z,1.16
2023-02-27T16:54:38.463Z,1.13
2023-02-27T16:57:05.326Z,1.10
2023-02-27T16:59:36.880Z,1.09
2023-02-27T17:02:07.091Z,1.08
2023-02-27T17:04:35.960Z,1.07
2023-02-27T17:07:06.821Z,1.05
2023-02-27T17:09:34.617Z,1.03
2023-02-27T17:12:01.454Z,1.02
2023-02-27T17:14:28.223Z,1.00
2023-02-27T17:16:55.070Z,0.99
2023-02-27T17:19:22.710Z,0.96
2023-02-27T17:21:50.280Z,0.93
2023-02-27T17:24:17.163Z,0.92
2023-02-27T17:26:43.989Z,0.92
2023-02-27T17:29:11.595Z,0.92
2023-02-27T17:31:41.147Z,0.91
2023-02-27T17:34:08.584Z,0.91
2023-02-27T17:36:36.133Z,0.90
2023-02-27T17:39:03.489Z,0.90
2023-02-27T17:41:31.351Z,0.87
2023-02-27T17:44:01.141Z,0.85
2023-02-27T17:46:48.660Z,0.83
2023-02-27T17:49:16.387Z,0.83
2023-02-27T17:51:43.589Z,0.81
2023-02-27T17:54:10.724Z,0.83
2023-02-27T17:56:38.371Z,0.83
2023-02-27T17:59:05.243Z,0.82
2023-02-27T18:01:32.241Z,0.80
2023-02-27T18:03:59.280Z,0.81
2023-02-27T18:06:26.357Z,0.77
2023-02-27T18:08:53.742Z,0.80
2023-02-27T18:11:21.577Z,0.80
2023-02-27T18:13:50.051Z,0.79
2023-02-27T18:16:17.835Z,0.77
2023-02-27T18:18:45.321Z,0.77
2023-02-27T18:21:15.100Z,0.78
2023-02-27T18:23:43.223Z,0.78
2023-02-27T18:26:27.269Z,0.77
2023-02-27T18:29:08.037Z,0.75
2023-02-27T18:31:38.444Z,0.73
2023-02-27T18:34:07.248Z,0.72
2023-02-27T18:36:35.032Z,0.70
2023-02-27T18:39:04.455Z,0.69
2023-02-27T18:41:32.028Z,0.70
2023-02-27T18:43:59.137Z,0.70
2023-02-27T18:46:27.795Z,0.70
2023-02-27T18:48:55.516Z,0.67
2023-02-27T18:51:22.486Z,0.66
2023-02-27T18:53:50.252Z,0.66
2023-02-27T18:56:22.321Z,0.65
2023-02-27T18:58:50.044Z,0.63
2023-02-27T19:01:25.463Z,0.62
2023-02-27T19:03:55.484Z,0.62
2023-02-27T19:06:22.507Z,0.61
2023-02-27T19:08:49.514Z,0.61
2023-02-27T19:11:35.223Z,0.60
2023-02-27T19:14:04.452Z,0.59
2023-02-27T19:16:31.917Z,0.59
2023-02-27T19:19:01.633Z,0.58
2023-02-27T19:21:29.987Z,0.58
2023-02-27T19:23:57.822Z,0.58
2023-02-27T19:26:25.986Z,0.56
2023-02-27T19:28:54.582Z,0.55
2023-02-27T19:31:23.619Z,0.54
2023-02-27T19:33:51.274Z,0.53
2023-02-27T19:36:21.496Z,0.53
2023-02-27T19:38:48.873Z,0.54
2023-02-27T19:41:17.065Z,0.55
2023-02-27T19:43:44.660Z,0.55
2023-02-27T19:46:15.565Z,0.54
2023-02-27T19:48:42.849Z,0.53
2023-02-27T19:51:12.770Z,0.52
2023-02-27T19:53:41.896Z,0.51
2023-02-27T19:56:16.222Z,0.49
2023-02-27T19:58:43.125Z,0.47
2023-02-27T20:01:10.793Z,0.47
2023-02-27T20:03:42.395Z,0.49
2023-02-27T20:06:18.805Z,0.48
2023-02-27T20:08:45.913Z,0.46
2023-02-27T20:11:15.184Z,0.44
2023-02-27T20:13:42.620Z,0.42
2023-02-27T20:16:12.359Z,0.40
2023-02-27T20:18:41.572Z,0.38
2023-02-27T20:21:17.442Z,0.35
2023-02-27T20:23:45.865Z,0.34
2023-02-27T20:26:19.574Z,0.31
2023-02-27T20:28:47.846Z,0.30
2023-02-27T20:31:16.554Z,0.31
2023-02-27T20:33:43.383Z,0.31
2023-02-27T20:36:10.905Z,0.33
2023-02-27T20:38:39.115Z,0.34
2023-02-27T20:41:29.324Z,0.34
2023-02-27T20:43:57.120Z,0.31
2023-02-27T20:46:27.924Z,0.29
2023-02-27T20:49:00.213Z,0.29
2023-02-27T20:51:29.952Z,0.27
2023-02-27T20:53:59.433Z,0.25
2023-02-27T20:56:35.875Z,0.21
2023-02-27T20:59:05.349Z,0.18
2023-02-27T21:01:32.901Z,0.17
2023-02-27T21:04:00.182Z,0.17
2023-02-27T21:06:27.580Z,0.18
2023-02-27T21:08:56.525Z,0.16
2023-02-27T21:11:28.687Z,0.16
2023-02-27T21:13:57.593Z,0.15
2023-02-27T21:16:25.239Z,0.14
2023-02-27T21:18:52.848Z,0.15
2023-02-27T21:21:23.155Z,0.15
2023-02-27T21:23:50.770Z,0.13
2023-02-27T21:26:28.724Z,0.14
2023-02-27T21:29:01.155Z,0.13
2023-02-27T21:31:31.043Z,0.13
2023-02-27T21:34:00.261Z,0.12
2023-02-27T21:36:31.245Z,0.10
2023-02-27T21:39:00.437Z,0.10
2023-02-27T21:41:28.681Z,0.11
2023-02-27T21:43:59.968Z,0.12
2023-02-27T21:46:28.183Z,0.12
2023-02-27T21:48:55.652Z,0.11
2023-02-27T21:51:38.298Z,0.11
2023-02-27T21:54:08.635Z,0.11
2023-02-27T21:56:35.843Z,0.09
2023-02-27T21:59:02.826Z,0.10
2023-02-27T22:01:30.782Z,0.10
2023-02-27T22:03:57.969Z,0.11
2023-02-27T22:06:27.000Z,0.12
2023-02-27T22:08:55.539Z,0.15
2023-02-27T22:11:24.172Z,0.15
2023-02-27T22:13:51.245Z,0.15
2023-02-27T22:16:19.277Z,0.16
2023-02-27T22:18:47.335Z,0.17
2023-02-27T22:21:17.488Z,0.18
2023-02-27T22:23:45.908Z,0.13
2023-02-27T22:26:18.986Z,0.17
2023-02-27T22:28:45.800Z,0.18
2023-02-27T22:31:20.438Z,0.17
2023-02-27T22:33:49.744Z,0.18
2023-02-27T22:36:22.564Z,0.18
2023-02-27T22:38:49.573Z,0.22
2023-02-27T22:41:42.974Z,0.25
2023-02-27T22:44:13.105Z,0.26
2023-02-27T22:46:43.611Z,0.27
2023-02-27T22:49:19.690Z,0.29
2023-02-27T22:51:50.642Z,0.30
2023-02-27T22:54:19.979Z,0.32
2023-02-27T22:56:50.284Z,0.33
2023-02-27T22:59:17.283Z,0.33
2023-02-27T23:01:44.094Z,0.32
2023-02-27T23:04:11.222Z,0.34
2023-02-27T23:06:39.820Z,0.35
2023-02-27T23:09:10.464Z,0.36
2023-02-27T23:11:37.425Z,0.36
2023-02-27T23:14:04.335Z,0.36
2023-02-27T23:16:31.479Z,0.37
2023-02-27T23:18:59.349Z,0.36
2023-02-27T23:21:35.230Z,0.36
2023-02-27T23:24:06.971Z,0.36
2023-02-27T23:26:38.402Z,0.38
2023-02-27T23:29:06.285Z,0.40
2023-02-27T23:31:35.420Z,0.41
2023-02-27T23:34:05.323Z,0.43
2023-02-27T23:36:33.709Z,0.45
2023-02-27T23:39:02.351Z,0.47
2023-02-27T23:41:30.271Z,0.47
2023-02-27T23:44:15.588Z,0.47
2023-02-27T23:46:42.474Z,0.49
2023-02-27T23:49:10.724Z,0.52
2023-02-27T23:51:37.581Z,0.55
2023-02-27T23:54:04.479Z,0.56
2023-02-27T23:56:31.405Z,0.57
2023-02-27T23:59:01.165Z,0.59
